Aviation Digital Data Service (ADDS)

Output produced by METARs form (2003 UTC 21 September 2021)
found at http://www.aviationweather.gov/metar/data/
 
TAF MPTO 211700Z 2118/2224 33008KT 9999 SCT018 SCT090 
     PROB30 2118/2122 18008KT 7000 TSRA SCT016CB BKN080 
     TEMPO 2204/2206 VRB02KT